Dumas, TX

12:04 AM CDT on April 28, 2017 (GMT -0500)
Moore County

Weather History for KDUX - May, 2014

Change the Weather History Date:

Tuesday, May 6, 2014

  Actual Average (KDHT) Record (KDHT)
Temperature  
Mean Temperature 72 °F -  
Max Temperature 89 °F 74 °F 94 °F (2000)
Min Temperature 55 °F 43 °F 32 °F (1953)
Cooling Degree Days 6    
Growing Degree Days 22 (Base 50)    
Moisture  
Dew Point 13 °F    
Average Humidity 11    
Maximum Humidity 20    
Minimum Humidity 5    
Precipitation  
Precipitation 0.00 in - - ()
Sea Level Pressure  
Sea Level Pressure 29.68 in    
Wind  
Wind Speed 15 mph (SW)    
Max Wind Speed 29 mph    
Max Gust Speed 38 mph    
Visibility 10 miles    
Events      
Averages and records for this station are not official NWS values.
T = Trace of Precipitation, MM = Missing Value Source: NWS Daily Summary

Daily Weather History Graph

Daily Weather History Graph

Search for Another Location

Airport or City:

Trip Planner

Search our weather history database for the weather conditions in past years. The results will help you decide how hot, cold, wet, or windy it might be!

Date:

Astronomy

May. 06, 2014 Rise Set
Actual Time 6:50 AM CDT 8:39 PM CDT
Civil Twilight 6:22 AM CDT 9:07 PM CDT
Nautical Twilight 5:49 AM CDT 9:40 PM CDT
Astronomical Twilight 5:13 AM CDT 10:16 PM CDT
Moon 1:06 PM CDT (5/6) 2:01 AM CDT (5/6)
Length of Visible Light 14h 44m
Length of Day
13h 48m
Waxing Crescent, 46% of the Moon is Illuminated
May 6
Waxing Crescent
May 6
First Quarter
May 14
Full
May 21
Last Quarter
May 28
New

Hourly Weather History & Observations

Time (CDT) Temp. Dew Point Humidity Pressure Visibility Wind Dir Wind Speed Gust Speed Precip Events Conditions
12:15 AM 69.3 °F 12.4 °F 11% 29.74 in 10.0 mi SW 11.5 mph - N/A   Clear
12:35 AM 68.0 °F 12.7 °F 12% 29.74 in 10.0 mi SW 11.5 mph - N/A   Clear
12:55 AM 66.6 °F 13.1 °F 13% 29.74 in 10.0 mi SW 9.2 mph - N/A   Clear
1:15 AM 64.0 °F 12.7 °F 14% 29.74 in 10.0 mi Calm Calm - N/A   Clear
1:35 AM 62.2 °F 13.1 °F 15% 29.73 in 10.0 mi WSW 11.5 mph - N/A   Clear
1:55 AM 63.5 °F 13.1 °F 14% 29.73 in 10.0 mi WSW 12.7 mph - N/A   Clear
2:15 AM 64.2 °F 13.6 °F 14% 29.73 in 10.0 mi SSW 12.7 mph - N/A   Clear
2:35 AM 63.0 °F 12.7 °F 14% 29.72 in 10.0 mi SW 12.7 mph - N/A   Clear
2:55 AM 62.4 °F 11.8 °F 14% 29.71 in 10.0 mi SW 12.7 mph - N/A   Clear
3:15 AM 61.7 °F 11.3 °F 14% 29.70 in 10.0 mi SW 12.7 mph - N/A   Clear
3:35 AM 62.6 °F 11.8 °F 14% 29.69 in 10.0 mi SW 12.7 mph - N/A   Clear
3:55 AM 62.1 °F 12.7 °F 15% 29.69 in 10.0 mi SW 11.5 mph - N/A   Clear
4:15 AM 57.0 °F 12.9 °F 18% 29.69 in 10.0 mi SW 10.4 mph - N/A   Clear
4:35 AM 56.7 °F 12.9 °F 18% 29.69 in 10.0 mi SW 11.5 mph - N/A   Clear
4:55 AM 58.3 °F 13.1 °F 17% 29.69 in 10.0 mi SW 10.4 mph - N/A   Clear
5:15 AM 58.6 °F 14.2 °F 17% 29.69 in 10.0 mi SSW 12.7 mph - N/A   Clear
5:35 AM 58.1 °F 14.4 °F 18% 29.69 in 10.0 mi SW 11.5 mph - N/A   Clear
6:55 AM 55.6 °F 13.6 °F 19% 29.70 in 10.0 mi WSW 12.7 mph - N/A   Clear
7:15 AM 55.6 °F 14.7 °F 20% 29.70 in 10.0 mi WSW 15.0 mph - N/A   Clear
7:35 AM 58.5 °F 16.0 °F 19% 29.71 in 10.0 mi WSW 15.0 mph - N/A   Clear
7:55 AM 59.7 °F 17.1 °F 19% 29.71 in 10.0 mi WSW 16.1 mph - N/A   Clear
8:15 AM 63.3 °F 17.4 °F 17% 29.71 in 10.0 mi WSW 15.0 mph - N/A   Clear
8:55 AM 69.1 °F 18.9 °F 15% 29.72 in 10.0 mi West 18.4 mph - N/A   Clear
9:15 AM 70.9 °F 19.8 °F 14% 29.73 in 10.0 mi WSW 16.1 mph 20.7 mph N/A   Clear
9:35 AM 72.7 °F 19.9 °F 14% 29.73 in 10.0 mi WSW 20.7 mph - N/A   Clear
9:55 AM 74.5 °F 19.6 °F 13% 29.73 in 10.0 mi WSW 20.7 mph 25.3 mph N/A   Clear
10:15 AM 77.2 °F 20.1 °F 12% 29.73 in 10.0 mi WSW 21.9 mph - N/A   Clear
10:35 AM 78.6 °F 19.8 °F 11% 29.73 in 10.0 mi WSW 21.9 mph 25.3 mph N/A   Clear
10:55 AM 81.0 °F 19.8 °F 10% 29.73 in 10.0 mi WSW 19.6 mph - N/A   Clear
11:15 AM 82.4 °F 19.9 °F 10% 29.73 in 10.0 mi WSW 19.6 mph 25.3 mph N/A   Clear
11:35 AM 83.7 °F 18.5 °F 9% 29.73 in 10.0 mi WSW 23.0 mph 29.9 mph N/A   Clear
11:55 AM 84.4 °F 17.6 °F 8% 29.73 in 10.0 mi WSW 17.3 mph 28.8 mph N/A   Clear
12:15 PM 85.1 °F 16.3 °F 8% 29.72 in 10.0 mi WSW 18.4 mph 27.6 mph N/A   Clear
12:35 PM 86.0 °F 15.8 °F 7% 29.72 in 10.0 mi SW 25.3 mph 31.1 mph N/A   Clear
12:55 PM 85.1 °F 14.9 °F 7% 29.71 in 10.0 mi SW 20.7 mph 29.9 mph N/A   Clear
1:15 PM 85.5 °F 15.4 °F 7% 29.71 in 10.0 mi SW 25.3 mph 29.9 mph N/A   Clear
1:35 PM 86.7 °F 15.3 °F 7% 29.70 in 10.0 mi SSW 24.2 mph 29.9 mph N/A   Clear
1:55 PM 86.7 °F 16.2 °F 7% 29.69 in 10.0 mi SW 27.6 mph 33.4 mph N/A   Clear
2:15 PM 86.7 °F 15.1 °F 7% 29.68 in 10.0 mi SW 21.9 mph 34.5 mph N/A   Clear
2:35 PM 86.5 °F 15.8 °F 7% 29.67 in 10.0 mi SW 21.9 mph 36.8 mph N/A   Clear
3:15 PM 87.6 °F 14.7 °F 7% 29.67 in 10.0 mi WSW 25.3 mph 34.5 mph N/A   Scattered Clouds
3:35 PM 87.6 °F 14.9 °F 7% 29.66 in 10.0 mi WSW 24.2 mph 35.7 mph N/A   Scattered Clouds
3:55 PM 87.8 °F 13.3 °F 6% 29.65 in 10.0 mi SW 26.5 mph 35.7 mph N/A   Scattered Clouds
4:15 PM 88.9 °F 12.2 °F 6% 29.64 in 10.0 mi SW 28.8 mph 36.8 mph N/A   Clear
4:35 PM 88.7 °F 11.1 °F 6% 29.63 in 10.0 mi SW 23.0 mph 36.8 mph N/A   Scattered Clouds
4:55 PM 88.2 °F 11.5 °F 6% 29.62 in 10.0 mi SSW 24.2 mph 38.0 mph N/A   Scattered Clouds
5:15 PM 88.5 °F 11.3 °F 6% 29.62 in 10.0 mi SSW 23.0 mph 34.5 mph N/A   Clear
5:35 PM 88.5 °F 10.8 °F 5% 29.62 in 10.0 mi SW 28.8 mph 36.8 mph N/A   Clear
5:55 PM 87.4 °F 11.5 °F 6% 29.62 in 10.0 mi SW 21.9 mph 28.8 mph N/A   Scattered Clouds
6:15 PM 86.5 °F 9.5 °F 6% 29.62 in 10.0 mi SW 24.2 mph 31.1 mph N/A   Clear
6:35 PM 86.2 °F 9.9 °F 6% 29.62 in 10.0 mi WSW 25.3 mph 33.4 mph N/A   Clear
6:55 PM 85.6 °F 9.9 °F 6% 29.61 in 10.0 mi SW 18.4 mph 32.2 mph N/A   Clear
7:15 PM 85.8 °F 9.5 °F 6% 29.61 in 10.0 mi SW 19.6 mph - N/A   Clear
7:35 PM 84.9 °F 8.4 °F 6% 29.61 in 10.0 mi SW 19.6 mph 29.9 mph N/A   Clear
7:55 PM 83.5 °F 7.5 °F 6% 29.61 in 10.0 mi SW 20.7 mph 25.3 mph N/A   Clear
8:15 PM 81.7 °F 7.7 °F 6% 29.61 in 10.0 mi SW 17.3 mph 25.3 mph N/A   Clear
8:35 PM 78.1 °F 7.9 °F 7% 29.61 in 10.0 mi SW 11.5 mph - N/A   Clear
8:55 PM 74.8 °F 7.5 °F 7% 29.62 in 10.0 mi SW 10.4 mph - N/A   Clear
9:15 PM 69.1 °F 8.4 °F 9% 29.62 in 10.0 mi SSW 3.5 mph - N/A   Clear
9:35 PM 67.3 °F 10.4 °F 11% 29.63 in 10.0 mi SSW 10.4 mph - N/A   Clear
9:55 PM 70.3 °F 8.1 °F 9% 29.63 in 10.0 mi SSW 13.8 mph - N/A   Clear
10:15 PM 71.2 °F 6.4 °F 8% 29.64 in 10.0 mi SW 13.8 mph - N/A   Clear
10:55 PM 67.8 °F 6.4 °F 9% 29.65 in 10.0 mi SW 13.8 mph - N/A   Clear
11:15 PM 67.8 °F 7.3 °F 9% 29.65 in 10.0 mi SW 11.5 mph - N/A   Clear
11:35 PM 61.0 °F 9.9 °F 13% 29.66 in 10.0 mi South 11.5 mph - N/A   Clear
11:55 PM 63.0 °F 8.1 °F 11% 29.66 in 10.0 mi SSW 11.5 mph - N/A   Clear